createdAt,value
2022-08-03T05:39:18.575Z,99.90
2022-08-03T05:41:48.365Z,99.90
2022-08-03T05:44:17.630Z,99.90
2022-08-03T05:46:46.511Z,99.90
2022-08-03T05:49:15.383Z,99.90
2022-08-03T05:51:44.297Z,99.90
2022-08-03T05:54:13.471Z,99.90
2022-08-03T05:56:43.712Z,99.90
2022-08-03T05:59:37.058Z,99.90
2022-08-03T06:02:01.658Z,99.90
2022-08-03T06:04:30.619Z,99.90
2022-08-03T06:06:59.472Z,99.90
2022-08-03T06:10:33.165Z,99.90
2022-08-03T06:12:20.858Z,99.90
2022-08-03T06:14:49.921Z,99.90
2022-08-03T06:17:18.753Z,99.90
2022-08-03T06:19:47.678Z,99.90
2022-08-03T06:22:16.588Z,99.90
2022-08-03T06:24:53.366Z,99.90
2022-08-03T06:27:37.107Z,99.90
2022-08-03T06:30:08.154Z,99.90
2022-08-03T06:32:36.959Z,99.90
2022-08-03T06:35:06.558Z,99.90
2022-08-03T06:37:44.937Z,99.90
2022-08-03T06:40:15.444Z,99.90
2022-08-03T06:42:52.311Z,99.90
2022-08-03T06:45:21.491Z,99.50
2022-08-03T06:48:01.367Z,98.40
2022-08-03T06:50:30.611Z,97.40
2022-08-03T06:52:59.652Z,97.60
2022-08-03T06:55:28.912Z,96.90
2022-08-03T06:57:59.849Z,97.70
2022-08-03T07:00:32.286Z,96.10
2022-08-03T07:03:01.058Z,95.00
2022-08-03T07:05:30.841Z,95.30
2022-08-03T07:08:01.974Z,94.90
2022-08-03T07:10:31.448Z,95.40
2022-08-03T07:13:01.734Z,95.50
2022-08-03T07:15:54.559Z,94.30
2022-08-03T07:18:29.280Z,93.40
2022-08-03T07:20:59.151Z,92.20
2022-08-03T07:23:28.117Z,93.10
2022-08-03T07:25:57.086Z,91.60
2022-08-03T07:28:28.241Z,92.10
2022-08-03T07:30:57.113Z,92.00
2022-08-03T07:33:25.833Z,92.70
2022-08-03T07:35:54.889Z,93.20
2022-08-03T07:38:23.751Z,93.80
2022-08-03T07:40:52.577Z,93.60
2022-08-03T07:43:21.479Z,93.40
2022-08-03T07:45:51.740Z,92.00
2022-08-03T07:48:20.710Z,92.70
2022-08-03T07:50:49.816Z,91.50
2022-08-03T07:53:18.792Z,91.40
2022-08-03T07:55:47.559Z,91.00
2022-08-03T07:58:21.976Z,91.20
2022-08-03T08:00:54.368Z,91.60
2022-08-03T08:03:23.447Z,91.90
2022-08-03T08:05:52.476Z,90.90
2022-08-03T08:12:45.070Z,91.10
2022-08-03T08:15:20.827Z,89.70
2022-08-03T08:17:58.051Z,90.90
2022-08-03T08:20:32.321Z,88.20
2022-08-03T08:23:19.954Z,87.80
2022-08-03T08:26:03.770Z,87.50
2022-08-03T08:28:36.854Z,86.40
2022-08-03T08:31:11.805Z,85.80
2022-08-03T08:34:03.046Z,84.60
2022-08-03T08:36:32.538Z,86.90
2022-08-03T08:39:01.334Z,83.80
2022-08-03T08:41:34.007Z,84.60
2022-08-03T08:44:03.792Z,83.30
2022-08-03T08:46:34.740Z,83.10
2022-08-03T08:49:05.712Z,81.50
2022-08-03T08:51:59.166Z,81.90
2022-08-03T08:54:28.166Z,80.40
2022-08-03T08:56:59.552Z,78.00
2022-08-03T08:59:47.946Z,78.40
2022-08-03T09:02:18.049Z,80.10
2022-08-03T09:04:49.335Z,77.10
2022-08-03T09:07:20.618Z,79.00
2022-08-03T09:10:12.048Z,80.50
2022-08-03T09:12:44.640Z,75.00
2022-08-03T09:15:22.799Z,79.00
2022-08-03T09:35:53.717Z,70.40
2022-08-03T09:38:26.588Z,69.50
2022-08-03T09:41:00.051Z,69.60
2022-08-03T09:43:29.734Z,70.00
2022-08-03T09:46:05.346Z,71.00
2022-08-03T09:48:35.197Z,70.30
2022-08-03T09:51:14.409Z,70.30
2022-08-03T09:54:00.290Z,70.30
2022-08-03T09:56:44.511Z,71.00
2022-08-03T09:59:15.390Z,69.30
2022-08-03T10:01:44.385Z,68.70
2022-08-03T10:04:18.031Z,65.00
2022-08-03T10:07:03.566Z,64.10
2022-08-03T10:09:32.477Z,67.10
2022-08-03T10:12:10.154Z,64.90
2022-08-03T10:14:47.167Z,67.10
2022-08-03T10:17:17.242Z,66.10
2022-08-03T10:19:47.680Z,61.80
2022-08-03T10:22:44.629Z,62.60
2022-08-03T10:25:17.514Z,63.70
2022-08-03T10:27:51.807Z,63.00
2022-08-03T10:30:20.926Z,60.70
2022-08-03T10:33:00.264Z,59.60
2022-08-03T10:35:31.006Z,57.10
2022-08-03T10:38:04.645Z,56.00
2022-08-03T10:40:53.498Z,59.10
2022-08-03T10:43:27.894Z,57.10
2022-08-03T10:45:58.359Z,57.30
2022-08-03T10:48:27.586Z,57.60
2022-08-03T10:50:57.069Z,60.00
2022-08-03T10:53:38.649Z,60.40
2022-08-03T10:56:49.553Z,57.40
2022-08-03T10:59:27.951Z,58.30
2022-08-03T11:02:01.008Z,56.00
2022-08-03T11:04:30.965Z,55.90
2022-08-03T11:07:23.062Z,55.80
2022-08-03T11:09:55.324Z,56.20
2022-08-03T11:12:31.358Z,58.00
2022-08-03T11:15:03.406Z,57.10
2022-08-03T11:17:33.385Z,56.00
2022-08-03T11:20:02.302Z,56.20
2022-08-03T11:22:51.867Z,55.40
2022-08-03T11:25:54.593Z,55.20
2022-08-03T11:28:30.728Z,54.60
2022-08-03T11:31:53.435Z,55.00
2022-08-03T11:34:22.568Z,54.10
2022-08-03T11:37:30.201Z,54.90
2022-08-03T11:40:02.817Z,54.20
2022-08-03T11:42:45.929Z,54.00
2022-08-03T11:45:15.205Z,53.80
2022-08-03T11:47:50.323Z,54.10
2022-08-03T11:50:21.611Z,54.70
2022-08-03T11:52:51.319Z,53.70
2022-08-03T11:55:22.373Z,53.90
2022-08-03T11:59:11.061Z,54.70
2022-08-03T12:00:42.187Z,54.40
2022-08-03T12:03:17.610Z,52.80
2022-08-03T12:05:52.280Z,52.90
2022-08-03T12:08:31.367Z,52.60
2022-08-03T12:11:01.842Z,53.40
2022-08-03T12:14:33.013Z,51.60
2022-08-03T12:16:29.958Z,52.30
2022-08-03T12:19:00.125Z,53.80
2022-08-03T12:21:29.525Z,54.20
2022-08-03T12:24:00.569Z,53.40
2022-08-03T12:26:30.409Z,51.80
2022-08-03T12:29:00.677Z,51.40
2022-08-03T12:31:29.920Z,51.30
2022-08-03T12:34:04.366Z,53.40
2022-08-03T12:36:36.581Z,52.20
2022-08-03T12:39:07.878Z,53.80
2022-08-03T12:41:38.476Z,51.00
2022-08-03T12:44:10.459Z,51.50
2022-08-03T12:46:45.324Z,53.50
2022-08-03T12:49:19.312Z,53.50
2022-08-03T12:52:05.492Z,53.90
2022-08-03T12:54:36.228Z,52.50
2022-08-03T12:57:07.488Z,52.00
2022-08-03T12:59:45.155Z,53.10
2022-08-03T13:02:25.135Z,53.00
2022-08-03T13:04:55.881Z,52.70
2022-08-03T13:07:24.822Z,52.90
2022-08-03T13:09:55.966Z,52.30
2022-08-03T13:12:26.369Z,53.30
2022-08-03T13:14:58.566Z,51.00
2022-08-03T13:17:28.528Z,50.50
2022-08-03T13:19:58.064Z,50.80
2022-08-03T13:22:30.494Z,51.00
2022-08-03T13:25:01.199Z,50.40
2022-08-03T13:28:03.721Z,50.30
2022-08-03T13:30:29.789Z,50.10
2022-08-03T13:33:00.717Z,50.90
2022-08-03T13:35:29.601Z,52.00
2022-08-03T13:37:58.684Z,52.10
2022-08-03T13:40:30.057Z,51.60
2022-08-03T13:42:59.720Z,51.70
2022-08-03T13:45:29.937Z,50.60
2022-08-03T13:47:58.928Z,52.40
2022-08-03T13:50:27.726Z,53.40
2022-08-03T13:52:56.586Z,52.30
2022-08-03T13:55:25.809Z,51.30
2022-08-03T13:58:02.671Z,51.00
2022-08-03T14:00:37.278Z,52.10
2022-08-03T14:03:13.403Z,50.80
2022-08-03T14:05:43.285Z,51.10
2022-08-03T14:08:12.927Z,51.60
2022-08-03T14:10:43.787Z,51.70
2022-08-03T14:13:16.942Z,51.80
2022-08-03T14:15:50.997Z,51.20
2022-08-03T14:18:27.839Z,52.40
2022-08-03T14:21:07.318Z,51.00
2022-08-03T14:23:37.949Z,50.00
2022-08-03T14:26:07.639Z,52.10
2022-08-03T14:28:37.280Z,49.80
2022-08-03T14:31:08.171Z,50.90
2022-08-03T14:33:44.348Z,51.50
2022-08-03T14:36:13.599Z,51.30
2022-08-03T14:38:42.599Z,51.20
2022-08-03T14:41:12.234Z,51.60
2022-08-03T14:44:01.822Z,51.60
2022-08-03T14:46:33.406Z,50.60
2022-08-03T14:50:35.965Z,50.50
2022-08-03T14:51:53.696Z,51.60
2022-08-03T14:54:23.784Z,50.50
2022-08-03T14:56:52.961Z,50.80
2022-08-03T14:59:22.332Z,51.80
2022-08-03T15:02:02.222Z,51.30
2022-08-03T15:04:32.448Z,50.80
2022-08-03T15:07:02.289Z,52.00
2022-08-03T15:09:31.294Z,50.50
2022-08-03T15:12:00.401Z,51.80
2022-08-03T15:14:33.252Z,50.80
2022-08-03T15:17:05.248Z,50.80
2022-08-03T15:20:02.416Z,52.20
2022-08-03T15:22:25.386Z,51.50
2022-08-03T15:25:03.749Z,51.00
2022-08-03T15:28:03.745Z,50.70
2022-08-03T15:30:37.025Z,51.10
2022-08-03T15:33:07.842Z,51.40
2022-08-03T15:35:37.118Z,51.70
2022-08-03T15:38:09.452Z,50.90
2022-08-03T15:40:39.040Z,51.00
2022-08-03T15:43:07.943Z,51.60
2022-08-03T15:45:37.109Z,51.10
2022-08-03T15:48:07.849Z,51.90
2022-08-03T15:50:36.652Z,52.40
2022-08-03T15:53:05.734Z,51.40
2022-08-03T15:55:34.848Z,51.50
2022-08-03T15:59:11.880Z,51.10
2022-08-03T16:00:52.679Z,51.50
2022-08-03T16:03:23.013Z,50.10
2022-08-03T16:05:51.928Z,50.30
2022-08-03T16:08:20.927Z,51.40
2022-08-03T16:10:49.878Z,51.90
2022-08-03T16:13:19.287Z,50.50
2022-08-03T16:15:49.882Z,51.00
2022-08-03T16:18:19.533Z,51.20
2022-08-03T16:20:49.887Z,50.80
2022-08-03T16:23:20.076Z,50.80
2022-08-03T16:25:49.514Z,51.30
2022-08-03T16:28:19.509Z,51.90
2022-08-03T16:30:48.816Z,52.00
2022-08-03T16:33:18.200Z,51.40
2022-08-03T16:35:49.863Z,51.30
2022-08-03T16:38:19.628Z,52.20
2022-08-03T16:40:52.099Z,50.80
2022-08-03T16:43:22.497Z,51.00
2022-08-03T16:45:51.638Z,51.80
2022-08-03T16:48:21.360Z,51.40
2022-08-03T16:50:51.765Z,50.70
2022-08-03T16:53:33.325Z,50.50
2022-08-03T16:56:10.777Z,51.40
2022-08-03T16:58:42.274Z,52.70
2022-08-03T17:01:21.521Z,53.10
2022-08-03T17:04:02.140Z,52.90
2022-08-03T17:06:37.209Z,52.70
2022-08-03T17:09:09.858Z,52.90
2022-08-03T17:11:46.691Z,54.40
2022-08-03T17:14:17.459Z,54.90
2022-08-03T17:16:54.148Z,54.40
2022-08-03T17:19:25.437Z,54.80
2022-08-03T17:22:04.251Z,55.30
2022-08-03T17:24:35.239Z,55.80
2022-08-03T17:27:09.298Z,57.10
2022-08-03T17:30:02.619Z,56.70
2022-08-03T17:32:36.908Z,56.00
2022-08-03T17:35:12.215Z,55.60
2022-08-03T17:37:57.495Z,56.40
2022-08-03T17:40:27.707Z,57.10
2022-08-03T17:43:01.801Z,56.50
2022-08-03T17:45:52.888Z,57.70
2022-08-03T17:51:18.078Z,59.50
2022-08-03T17:54:00.839Z,60.20
2022-08-03T17:56:45.444Z,59.60
2022-08-03T17:59:50.811Z,63.40
2022-08-03T18:02:47.509Z,61.60
2022-08-03T18:05:21.995Z,60.40
2022-08-03T18:08:00.830Z,60.50
2022-08-03T18:10:49.769Z,61.90
2022-08-03T18:13:24.308Z,60.90
2022-08-03T18:16:01.401Z,61.20
2022-08-03T18:18:36.240Z,64.00
2022-08-03T18:21:09.316Z,64.90
2022-08-03T18:23:50.309Z,66.20
2022-08-03T18:26:23.327Z,66.10
2022-08-03T18:28:54.327Z,67.90
2022-08-03T18:31:59.848Z,66.70
2022-08-03T18:34:33.023Z,66.90
2022-08-03T18:37:04.275Z,67.70
2022-08-03T18:39:50.268Z,69.80
2022-08-03T18:42:26.381Z,69.10
2022-08-03T18:44:57.024Z,69.30
2022-08-03T18:47:52.150Z,69.30
2022-08-03T18:50:30.573Z,70.40
2022-08-03T18:53:15.558Z,71.70
2022-08-03T18:56:01.236Z,73.90
2022-08-03T18:58:36.041Z,75.00
2022-08-03T19:02:01.011Z,76.00
2022-08-03T19:04:10.800Z,76.30
2022-08-03T19:06:44.938Z,76.50
2022-08-03T19:09:24.536Z,78.20
2022-08-03T19:12:14.387Z,78.60
2022-08-03T19:14:56.463Z,78.70
2022-08-03T19:17:29.640Z,79.60
2022-08-03T19:20:01.608Z,80.20
2022-08-03T19:22:31.421Z,80.60
2022-08-03T19:25:02.774Z,81.50
2022-08-03T19:27:32.706Z,83.40
2022-08-03T19:30:14.074Z,83.00
2022-08-03T19:32:51.846Z,83.30
2022-08-03T19:35:54.679Z,84.40
2022-08-03T19:38:11.190Z,85.70
2022-08-03T19:40:45.799Z,86.40
2022-08-03T19:43:23.865Z,87.30
2022-08-03T19:46:06.949Z,88.10
2022-08-03T19:48:39.256Z,86.90
2022-08-03T19:51:12.688Z,89.40
2022-08-03T19:53:45.331Z,89.30
2022-08-03T19:56:16.526Z,90.00
2022-08-03T19:58:45.559Z,90.90
2022-08-03T20:01:23.878Z,91.30
2022-08-03T20:03:57.359Z,92.00
2022-08-03T20:06:26.280Z,92.30
2022-08-03T20:08:56.301Z,93.10
2022-08-03T20:11:28.751Z,93.50
2022-08-03T20:13:59.617Z,94.20
2022-08-03T20:16:30.089Z,94.20
2022-08-03T20:18:59.064Z,95.30
2022-08-03T20:21:31.371Z,94.50
2022-08-03T20:24:24.746Z,95.20
2022-08-03T20:26:56.715Z,95.50
2022-08-03T20:29:42.554Z,95.70
2022-08-03T20:32:24.498Z,96.20
2022-08-03T20:34:53.883Z,97.00
2022-08-03T20:37:24.376Z,97.50
2022-08-03T20:39:54.634Z,98.20
2022-08-03T20:42:23.811Z,98.90
2022-08-03T20:45:06.010Z,99.70
2022-08-03T20:47:41.625Z,99.60
2022-08-03T20:50:22.539Z,99.90
2022-08-03T20:52:51.579Z,99.90
2022-08-03T20:55:47.641Z,99.90
2022-08-03T20:58:09.931Z,99.50
2022-08-03T21:00:38.758Z,99.90
2022-08-03T21:03:09.332Z,99.90
2022-08-03T21:05:51.166Z,99.50
2022-08-03T21:08:27.194Z,99.10
2022-08-03T21:11:00.102Z,98.90
2022-08-03T21:13:04.404Z,57.30
2022-08-03T21:13:40.888Z,99.50
2022-08-03T21:16:14.698Z,99.70
2022-08-03T21:18:48.064Z,99.90
2022-08-03T21:21:20.212Z,99.90
2022-08-03T21:23:52.974Z,99.90
2022-08-03T21:26:23.543Z,99.90
2022-08-03T21:28:54.615Z,99.90
2022-08-03T21:31:26.436Z,99.90
2022-08-03T21:34:01.154Z,99.90
2022-08-03T21:36:32.897Z,99.90
